Time;durP1;ratioP1;P1;durP2;ratioP2;P2;SDS_P1;SDS_P2;PMS_P1;PMS_P2;Temp;Humidity;BMP_temperature;BMP_pressure;BME280_temperature;BME280_humidity;BME280_pressure;Samples;Min_cycle;Max_cycle;Signal;HPM_P1;HPM_P2
2022/05/28 00:02:16;;;;;;;;;;;;;;;;;;5030933;28;1290;-68
2022/05/28 00:04:42;;;;;;;;;;;;;;;;;;5031282;28;890;-68
2022/05/28 00:07:08;;;;;;;;;;;;;;;;;;5030806;28;937;-68
2022/05/28 00:09:35;;;;;;;;;;;;;;;;;;5030745;28;1111;-68
2022/05/28 00:12:01;;;;;;;;;;;;;;;;;;5030330;28;1449;-67
2022/05/28 00:14:29;;;;;;;;;;;;;;;;;;5030139;28;1079;-68
2022/05/28 00:16:56;;;;;;;;;;;;;;;;;;5029576;28;1977;-68
2022/05/28 00:19:22;;;;;;;;;;;;;;;;;;5030352;28;1107;-68
2022/05/28 00:21:48;;;;;;;;;;;;;;;;;;5030265;28;1427;-68
2022/05/28 00:24:14;;;;;;;;;;;;;;;;;;5030477;28;1114;-69
2022/05/28 00:26:41;;;;;;;;;;;;;;;;;;5030388;28;1143;-68
2022/05/28 00:29:07;;;;;;;;;;;;;;;;;;5030491;28;815;-68
2022/05/28 00:31:35;;;;;;;;;;;;;;;;;;5012633;28;1423;-67
2022/05/28 00:34:01;;;;;;;;;;;;;;;;;;5030085;28;1103;-68
2022/05/28 00:36:27;;;;;;;;;;;;;;;;;;5029828;28;1918;-68
2022/05/28 00:38:53;;;;;;;;;;;;;;;;;;5029383;28;736;-68
2022/05/28 00:41:19;;;;;;;;;;;;;;;;;;5028785;28;1481;-68
2022/05/28 00:43:46;;;;;;;;;;;;;;;;;;5030922;28;1071;-68
2022/05/28 00:46:13;;;;;;;;;;;;;;;;;;5031206;28;1052;-69
2022/05/28 00:48:43;;;;;;;;;;;;;;;;;;5031973;28;1063;-69
2022/05/28 00:51:11;;;;;;;;;;;;;;;;;;5031480;28;1431;-68
2022/05/28 00:53:37;;;;;;;;;;;;;;;;;;5031750;28;799;-68
2022/05/28 00:56:03;;;;;;;;;;;;;;;;;;5031513;28;1890;-68
2022/05/28 00:58:30;;;;;;;;;;;;;;;;;;5031682;28;942;-68
2022/05/28 01:00:56;;;;;;;;;;;;;;;;;;5031673;28;1417;-68
2022/05/28 01:03:24;;;;;;;;;;;;;;;;;;5031632;28;1119;-68
2022/05/28 01:05:53;;;;;;;;;;;;;;;;;;5013649;28;1108;-68
2022/05/28 01:08:20;;;;;;;;;;;;;;;;;;5031450;28;1402;-68
2022/05/28 01:10:49;;;;;;;;;;;;;;;;;;5030896;28;1297;-68
2022/05/28 01:13:15;;;;;;;;;;;;;;;;;;5031486;28;874;-68
2022/05/28 01:15:43;;;;;;;;;;;;;;;;;;5031292;28;1977;-68
2022/05/28 01:18:12;;;;;;;;;;;;;;;;;;5031327;28;847;-68
2022/05/28 01:20:40;;;;;;;;;;;;;;;;;;5031153;28;826;-68
2022/05/28 01:23:12;;;;;;;;;;;;;;;;;;5031571;28;1068;-69
2022/05/28 01:25:43;;;;;;;;;;;;;;;;;;5031341;28;796;-69
2022/05/28 01:28:11;;;;;;;;;;;;;;;;;;5029823;28;961;-68
2022/05/28 01:30:38;;;;;;;;;;;;;;;;;;5035979;28;2306;-68
2022/05/28 01:33:04;;;;;;;;;;;;;;;;;;5050838;28;1338;-69
2022/05/28 01:35:30;;;;;;;;;;;;;;;;;;5051006;28;1914;-69
2022/05/28 01:37:57;;;;;;;;;;;;;;;;;;5050794;28;826;-68
2022/05/28 01:40:23;;;;;;;;;;;;;;;;;;5047931;28;1549;-68
2022/05/28 01:42:51;;;;;;;;;;;;;;;;;;5050666;28;1399;-69
2022/05/28 01:45:19;;;;;;;;;;;;;;;;;;5051544;28;1056;-69
2022/05/28 01:47:45;;;;;;;;;;;;;;;;;;5051857;28;798;-68
2022/05/28 01:50:12;;;;;;;;;;;;;;;;;;5051450;28;1111;-69
2022/05/28 01:52:38;;;;;;;;;;;;;;;;;;5032507;28;1492;-68
2022/05/28 01:55:05;;;;;;;;;;;;;;;;;;5050806;28;1130;-68
2022/05/28 01:57:31;;;;;;;;;;;;;;;;;;5050425;28;1918;-68
2022/05/28 01:59:57;;;;;;;;;;;;;;;;;;5050710;28;1008;-68
2022/05/28 02:02:25;;;;;;;;;;;;;;;;;;5050468;28;1339;-68
2022/05/28 02:04:51;;;;;;;;;;;;;;;;;;5050467;28;1251;-69
2022/05/28 02:07:18;;;;;;;;;;;;;;;;;;5050365;28;1052;-68
2022/05/28 02:09:45;;;;;;;;;;;;;;;;;;5050309;28;1111;-69
2022/05/28 02:12:14;;;;;;;;;;;;;;;;;;5050370;28;1477;-69
2022/05/28 02:14:43;;;;;;;;;;;;;;;;;;5038771;28;2181;-67
2022/05/28 02:17:11;;;;;;;;;;;;;;;;;;5038739;28;1979;-69
2022/05/28 02:19:41;;;;;;;;;;;;;;;;;;5028211;28;1156;-69
2022/05/28 02:22:10;;;;;;;;;;;;;;;;;;5032124;28;1389;-69
2022/05/28 02:24:37;;;;;;;;;;;;;;;;;;5050345;28;901;-69
2022/05/28 02:27:05;;;;;;;;;;;;;;;;;;5032223;28;1005;-69
2022/05/28 02:29:31;;;;;;;;;;;;;;;;;;5050320;28;941;-69
2022/05/28 02:31:58;;;;;;;;;;;;;;;;;;5050461;28;1307;-68
2022/05/28 02:34:24;;;;;;;;;;;;;;;;;;5050432;28;1068;-68
2022/05/28 02:36:52;;;;;;;;;;;;;;;;;;5049959;28;1986;-68
2022/05/28 02:39:19;;;;;;;;;;;;;;;;;;5039725;28;1390;-69
2022/05/28 02:41:45;;;;;;;;;;;;;;;;;;5016141;28;1476;-69
2022/05/28 02:44:13;;;;;;;;;;;;;;;;;;5034114;28;1072;-68
2022/05/28 02:46:39;;;;;;;;;;;;;;;;;;5033972;28;1088;-68
2022/05/28 02:49:05;;;;;;;;;;;;;;;;;;5034387;28;796;-68
2022/05/28 02:51:31;;;;;;;;;;;;;;;;;;5033829;28;1353;-68
2022/05/28 02:53:59;;;;;;;;;;;;;;;;;;5034004;28;1081;-68
2022/05/28 02:56:25;;;;;;;;;;;;;;;;;;5033458;28;1977;-68
2022/05/28 02:58:51;;;;;;;;;;;;;;;;;;5033813;28;720;-68
2022/05/28 03:01:18;;;;;;;;;;;;;;;;;;5033845;28;1290;-68
2022/05/28 03:03:45;;;;;;;;;;;;;;;;;;5033812;28;783;-68
2022/05/28 03:06:11;;;;;;;;;;;;;;;;;;5033616;28;1060;-68
2022/05/28 03:08:37;;;;;;;;;;;;;;;;;;5033564;28;894;-68
2022/05/28 03:11:04;;;;;;;;;;;;;;;;;;5033756;28;1314;-68
2022/05/28 03:13:31;;;;;;;;;;;;;;;;;;5033640;28;1060;-68
2022/05/28 03:15:57;;;;;;;;;;;;;;;;;;5033672;28;1914;-68
2022/05/28 03:18:23;;;;;;;;;;;;;;;;;;5033021;28;866;-68
2022/05/28 03:20:49;;;;;;;;;;;;;;;;;;5033540;28;1297;-68
2022/05/28 03:23:15;;;;;;;;;;;;;;;;;;5033522;28;1072;-68
2022/05/28 03:25:42;;;;;;;;;;;;;;;;;;5033339;28;803;-67
2022/05/28 03:28:09;;;;;;;;;;;;;;;;;;5033267;28;1068;-68
2022/05/28 03:30:36;;;;;;;;;;;;;;;;;;5033305;28;1056;-68
2022/05/28 03:33:02;;;;;;;;;;;;;;;;;;5033576;28;1328;-68
2022/05/28 03:35:28;;;;;;;;;;;;;;;;;;5033081;28;1052;-67
2022/05/28 03:37:54;;;;;;;;;;;;;;;;;;5032593;28;1918;-68
2022/05/28 03:40:20;;;;;;;;;;;;;;;;;;5033186;28;1123;-68
2022/05/28 03:42:46;;;;;;;;;;;;;;;;;;5033168;28;1289;-68
2022/05/28 03:45:14;;;;;;;;;;;;;;;;;;5033207;28;1119;-68
2022/05/28 03:47:40;;;;;;;;;;;;;;;;;;5033036;28;1076;-68
2022/05/28 03:50:06;;;;;;;;;;;;;;;;;;5032336;28;809;-68
2022/05/28 03:52:33;;;;;;;;;;;;;;;;;;5033016;28;1451;-68
2022/05/28 03:54:59;;;;;;;;;;;;;;;;;;5033176;28;911;-68
2022/05/28 03:57:26;;;;;;;;;;;;;;;;;;5032735;28;1977;-68
2022/05/28 03:59:52;;;;;;;;;;;;;;;;;;5061229;22;3704;-72
2022/05/28 04:02:19;;;;;;;;;;;;;;;;;;5072479;28;1071;-71
2022/05/28 04:04:46;;;;;;;;;;;;;;;;;;5073003;28;908;-71
2022/05/28 04:07:12;;;;;;;;;;;;;;;;;;5072263;28;1071;-71
2022/05/28 04:09:38;;;;;;;;;;;;;;;;;;5079166;28;1284;-71
2022/05/28 04:12:05;;;;;;;;;;;;;;;;;;5092455;28;1067;-71
2022/05/28 04:14:31;;;;;;;;;;;;;;;;;;5092422;28;1075;-72
2022/05/28 04:16:57;;;;;;;;;;;;;;;;;;5091887;28;1910;-74
2022/05/28 04:19:25;;;;;;;;;;;;;;;;;;5092210;28;1300;-73
2022/05/28 04:21:51;;;;;;;;;;;;;;;;;;5092416;28;1071;-71
2022/05/28 04:24:17;;;;;;;;;;;;;;;;;;5092127;28;1075;-71
2022/05/28 04:26:43;;;;;;;;;;;;;;;;;;5092035;28;948;-68
2022/05/28 04:29:10;;;;;;;;;;;;;;;;;;5074061;28;1395;-69
2022/05/28 04:31:36;;;;;;;;;;;;;;;;;;5092259;28;1047;-69
2022/05/28 04:34:02;;;;;;;;;;;;;;;;;;5091948;28;1099;-69
2022/05/28 04:36:29;;;;;;;;;;;;;;;;;;5091251;28;1985;-69
2022/05/28 04:38:55;;;;;;;;;;;;;;;;;;5073854;28;1508;-68
2022/05/28 04:41:22;;;;;;;;;;;;;;;;;;5071614;28;1079;-69
2022/05/28 04:43:48;;;;;;;;;;;;;;;;;;5071579;28;1067;-69
2022/05/28 04:46:14;;;;;;;;;;;;;;;;;;5078928;28;1482;-69
2022/05/28 04:48:40;;;;;;;;;;;;;;;;;;5089087;28;1430;-68
2022/05/28 04:51:06;;;;;;;;;;;;;;;;;;5088260;28;1405;-68
2022/05/28 04:53:34;;;;;;;;;;;;;;;;;;5089312;28;1301;-69
2022/05/28 04:56:00;;;;;;;;;;;;;;;;;;5091637;28;1284;-69
2022/05/28 04:58:27;;;;;;;;;;;;;;;;;;5088860;28;1971;-73
2022/05/28 05:00:54;;;;;;;;;;;;;;;;;;5090100;28;1505;-72
2022/05/28 05:03:20;;;;;;;;;;;;;;;;;;5091398;28;1216;-70
2022/05/28 05:05:46;;;;;;;;;;;;;;;;;;5091443;28;1121;-72
2022/05/28 05:08:12;;;;;;;;;;;;;;;;;;5091131;28;845;-72
2022/05/28 05:10:40;;;;;;;;;;;;;;;;;;5091310;28;1380;-72
2022/05/28 05:13:06;;;;;;;;;;;;;;;;;;5091131;28;909;-70
2022/05/28 05:15:33;;;;;;;;;;;;;;;;;;5091129;28;935;-70
2022/05/28 05:17:59;;;;;;;;;;;;;;;;;;5090795;28;1965;-70
2022/05/28 05:20:25;;;;;;;;;;;;;;;;;;5087760;28;1314;-70
2022/05/28 05:22:52;;;;;;;;;;;;;;;;;;5080109;28;1251;-70
2022/05/28 05:25:18;;;;;;;;;;;;;;;;;;5081430;28;1263;-69
2022/05/28 05:27:46;;;;;;;;;;;;;;;;;;5079579;28;1291;-70
2022/05/28 05:30:13;;;;;;;;;;;;;;;;;;5061468;28;1364;-71
2022/05/28 05:32:39;;;;;;;;;;;;;;;;;;5084215;28;1437;-71
2022/05/28 05:35:06;;;;;;;;;;;;;;;;;;5083724;28;1373;-70
2022/05/28 05:37:32;;;;;;;;;;;;;;;;;;5087443;28;1918;-71
2022/05/28 05:39:58;;;;;;;;;;;;;;;;;;5090827;28;1403;-70
2022/05/28 05:42:24;;;;;;;;;;;;;;;;;;5090314;28;1176;-71
2022/05/28 05:44:53;;;;;;;;;;;;;;;;;;5089987;28;1363;-70
2022/05/28 05:47:19;;;;;;;;;;;;;;;;;;5090163;28;1116;-72
2022/05/28 05:49:45;;;;;;;;;;;;;;;;;;5091004;28;1302;-72
2022/05/28 05:52:12;;;;;;;;;;;;;;;;;;5090657;28;1063;-72
2022/05/28 05:54:38;;;;;;;;;;;;;;;;;;5089777;28;1322;-72
2022/05/28 05:57:05;;;;;;;;;;;;;;;;;;5090264;28;1917;-71
2022/05/28 05:59:31;;;;;;;;;;;;;;;;;;5090302;28;1308;-70
2022/05/28 06:01:59;;;;;;;;;;;;;;;;;;5081750;28;1573;-71
2022/05/28 06:04:25;;;;;;;;;;;;;;;;;;5088459;28;1192;-70
2022/05/28 06:06:51;;;;;;;;;;;;;;;;;;5088436;28;1055;-70
2022/05/28 06:09:17;;;;;;;;;;;;;;;;;;5088567;28;1418;-69
2022/05/28 06:11:43;;;;;;;;;;;;;;;;;;5087601;28;1390;-70
2022/05/28 06:14:09;;;;;;;;;;;;;;;;;;5088102;28;1609;-70
2022/05/28 06:16:36;;;;;;;;;;;;;;;;;;5090024;28;1399;-70
2022/05/28 06:19:03;;;;;;;;;;;;;;;;;;5089898;28;1918;-72
2022/05/28 06:21:30;;;;;;;;;;;;;;;;;;5090117;28;972;-70
2022/05/28 06:23:56;;;;;;;;;;;;;;;;;;5090171;28;1134;-71
2022/05/28 06:26:22;;;;;;;;;;;;;;;;;;5089079;28;1387;-70
2022/05/28 06:28:48;;;;;;;;;;;;;;;;;;5090177;28;1256;-70
2022/05/28 06:31:15;;;;;;;;;;;;;;;;;;5090120;28;1416;-70
2022/05/28 06:33:41;;;;;;;;;;;;;;;;;;5090017;28;1142;-70
2022/05/28 06:36:09;;;;;;;;;;;;;;;;;;5087511;28;1403;-70
2022/05/28 06:38:35;;;;;;;;;;;;;;;;;;5084307;28;1922;-70
2022/05/28 06:41:02;;;;;;;;;;;;;;;;;;5061443;28;1415;-72
2022/05/28 06:43:28;;;;;;;;;;;;;;;;;;5087720;28;1398;-70
2022/05/28 06:45:54;;;;;;;;;;;;;;;;;;5082095;28;1620;-71
2022/05/28 06:48:20;;;;;;;;;;;;;;;;;;5081222;28;1363;-70
2022/05/28 06:51:05;;;;;;;;;;;;;;;;;;5087028;28;1470;-71
2022/05/28 06:53:34;;;;;;;;;;;;;;;;;;5083784;28;1154;-70
2022/05/28 06:56:00;;;;;;;;;;;;;;;;;;5089917;28;1119;-72
2022/05/28 06:58:26;;;;;;;;;;;;;;;;;;5089889;28;1914;-71
2022/05/28 07:00:52;;;;;;;;;;;;;;;;;;5087666;28;1347;-72
2022/05/28 07:03:19;;;;;;;;;;;;;;;;;;5090147;28;1149;-72
2022/05/28 07:05:46;;;;;;;;;;;;;;;;;;5090061;28;964;-71
2022/05/28 07:08:12;;;;;;;;;;;;;;;;;;5089432;28;1071;-70
2022/05/28 07:10:40;;;;;;;;;;;;;;;;;;5088945;28;1433;-71
2022/05/28 07:13:06;;;;;;;;;;;;;;;;;;5089476;28;1193;-70
2022/05/28 07:15:33;;;;;;;;;;;;;;;;;;5094822;28;2603;-71
2022/05/28 07:17:59;;;;;;;;;;;;;;;;;;5101169;28;1965;-72
2022/05/28 07:20:25;;;;;;;;;;;;;;;;;;5088395;28;1397;-71
2022/05/28 07:22:51;;;;;;;;;;;;;;;;;;5088914;28;1339;-70
2022/05/28 07:25:18;;;;;;;;;;;;;;;;;;5083108;28;1586;-71
2022/05/28 07:27:46;;;;;;;;;;;;;;;;;;5092853;28;1177;-71
2022/05/28 07:30:12;;;;;;;;;;;;;;;;;;5092921;28;1375;-72
2022/05/28 07:32:38;;;;;;;;;;;;;;;;;;5086982;28;1466;-71
2022/05/28 07:35:05;;;;;;;;;;;;;;;;;;5092252;28;1390;-71
2022/05/28 07:37:32;;;;;;;;;;;;;;;;;;5092622;28;1969;-71
2022/05/28 07:39:58;;;;;;;;;;;;;;;;;;5093042;28;1372;-71
2022/05/28 07:42:24;;;;;;;;;;;;;;;;;;5092002;28;1499;-71
2022/05/28 07:44:52;;;;;;;;;;;;;;;;;;5090212;28;2196;-71
2022/05/28 07:47:19;;;;;;;;;;;;;;;;;;5100857;28;1153;-70
2022/05/28 07:49:45;;;;;;;;;;;;;;;;;;5092450;28;1296;-70
2022/05/28 07:52:11;;;;;;;;;;;;;;;;;;5091981;28;1563;-71
2022/05/28 07:54:38;;;;;;;;;;;;;;;;;;5091076;28;1556;-71
2022/05/28 07:57:04;;;;;;;;;;;;;;;;;;5091819;28;1324;-70
2022/05/28 07:59:30;;;;;;;;;;;;;;;;;;5081487;28;1955;-73
2022/05/28 08:01:58;;;;;;;;;;;;;;;;;;5086269;28;1394;-72
2022/05/28 08:04:24;;;;;;;;;;;;;;;;;;5078157;28;1436;-70
2022/05/28 08:06:50;;;;;;;;;;;;;;;;;;5084442;28;1109;-70
2022/05/28 08:09:17;;;;;;;;;;;;;;;;;;5089910;28;1497;-72
2022/05/28 08:11:43;;;;;;;;;;;;;;;;;;5087951;28;1629;-71
2022/05/28 08:14:09;;;;;;;;;;;;;;;;;;5071547;28;1440;-72
2022/05/28 08:16:35;;;;;;;;;;;;;;;;;;5087183;28;1410;-72
2022/05/28 08:19:03;;;;;;;;;;;;;;;;;;5089107;28;2049;-72
2022/05/28 08:24:13;;;;;;;;;;;;;;;;;;5094791;28;1149;-72
2022/05/28 08:26:39;;;;;;;;;;;;;;;;;;5111919;28;924;-72
2022/05/28 08:29:06;;;;;;;;;;;;;;;;;;5111899;28;1331;-73
2022/05/28 08:31:32;;;;;;;;;;;;;;;;;;5111974;28;1000;-73
2022/05/28 08:33:58;;;;;;;;;;;;;;;;;;5112033;28;1106;-72
2022/05/28 08:36:26;;;;;;;;;;;;;;;;;;5111326;28;944;-72
2022/05/28 08:38:52;;;;;;;;;;;;;;;;;;5093801;28;1917;-71
2022/05/28 08:41:19;;;;;;;;;;;;;;;;;;5111920;28;1118;-72
2022/05/28 08:43:47;;;;;;;;;;;;;;;;;;5112241;28;848;-72
2022/05/28 08:46:14;;;;;;;;;;;;;;;;;;5111894;28;1067;-74
2022/05/28 08:48:42;;;;;;;;;;;;;;;;;;5111972;28;881;-72
2022/05/28 08:51:09;;;;;;;;;;;;;;;;;;5096362;28;1423;-72
2022/05/28 08:53:37;;;;;;;;;;;;;;;;;;5071535;28;1075;-72
2022/05/28 08:56:04;;;;;;;;;;;;;;;;;;5071340;28;894;-72
2022/05/28 08:58:30;;;;;;;;;;;;;;;;;;5070647;28;1977;-74
2022/05/28 09:00:57;;;;;;;;;;;;;;;;;;5070964;28;1354;-72
2022/05/28 09:03:24;;;;;;;;;;;;;;;;;;5071117;28;818;-72
2022/05/28 09:05:51;;;;;;;;;;;;;;;;;;5053221;28;1295;-72
2022/05/28 09:08:19;;;;;;;;;;;;;;;;;;5070735;28;1130;-72
2022/05/28 09:10:47;;;;;;;;;;;;;;;;;;5070867;28;1303;-72
2022/05/28 09:13:16;;;;;;;;;;;;;;;;;;5070586;28;869;-72
2022/05/28 09:15:42;;;;;;;;;;;;;;;;;;5070877;28;1104;-72
2022/05/28 09:18:09;;;;;;;;;;;;;;;;;;5052774;28;1965;-70
2022/05/28 09:20:37;;;;;;;;;;;;;;;;;;5071170;28;1392;-72
2022/05/28 09:23:04;;;;;;;;;;;;;;;;;;5070785;28;1075;-72
2022/05/28 09:25:32;;;;;;;;;;;;;;;;;;5070809;28;936;-72
2022/05/28 09:28:01;;;;;;;;;;;;;;;;;;5070735;28;1115;-70
2022/05/28 09:30:30;;;;;;;;;;;;;;;;;;5070308;28;1297;-72
2022/05/28 09:33:08;;;;;;;;;;;;;;;;;;5070539;28;1067;-72
2022/05/28 09:35:40;;;;;;;;;;;;;;;;;;5070886;28;1003;-72
2022/05/28 09:38:12;;;;;;;;;;;;;;;;;;5070415;28;1910;-72
2022/05/28 09:40:39;;;;;;;;;;;;;;;;;;5070644;28;1301;-72
2022/05/28 09:43:09;;;;;;;;;;;;;;;;;;5070603;28;1115;-72
2022/05/28 09:45:37;;;;;;;;;;;;;;;;;;5070611;28;960;-73
2022/05/28 09:48:04;;;;;;;;;;;;;;;;;;5069561;28;1118;-72
2022/05/28 09:50:31;;;;;;;;;;;;;;;;;;5070202;28;1326;-72
2022/05/28 09:55:55;;;;;;;;;;;;;;;;;;5070675;28;985;-72
2022/05/28 09:58:23;;;;;;;;;;;;;;;;;;5070330;28;1891;-73
2022/05/28 10:00:49;;;;;;;;;;;;;;;;;;5092703;22;2230;-70
2022/05/28 10:06:09;;;;;;;;;;;;;;;;;;5050037;28;985;-69
2022/05/28 10:08:35;;;;;;;;;;;;;;;;;;5050737;28;981;-69
2022/05/28 10:11:03;;;;;;;;;;;;;;;;;;5059748;28;1720;-69
2022/05/28 10:13:31;;;;;;;;;;;;;;;;;;5070444;28;1293;-70
2022/05/28 10:15:58;;;;;;;;;;;;;;;;;;5067719;28;1594;-70
2022/05/28 10:18:25;;;;;;;;;;;;;;;;;;5069858;28;1914;-71
2022/05/28 10:20:58;;;;;;;;;;;;;;;;;;5068294;28;1462;-69
2022/05/28 10:23:24;;;;;;;;;;;;;;;;;;5069169;28;1524;-69
2022/05/28 10:25:50;;;;;;;;;;;;;;;;;;5067061;28;1464;-68
2022/05/28 10:28:26;;;;;;;;;;;;;;;;;;5065521;28;1612;-70
2022/05/28 10:30:54;;;;;;;;;;;;;;;;;;5066554;28;1443;-71
2022/05/28 10:33:20;;;;;;;;;;;;;;;;;;5065742;28;1463;-67
2022/05/28 10:35:47;;;;;;;;;;;;;;;;;;5062417;28;1427;-70
2022/05/28 10:38:14;;;;;;;;;;;;;;;;;;5067405;28;1914;-71
2022/05/28 10:40:46;;;;;;;;;;;;;;;;;;5064732;28;1594;-70
2022/05/28 10:43:15;;;;;;;;;;;;;;;;;;5048174;28;1382;-69
2022/05/28 10:45:42;;;;;;;;;;;;;;;;;;5065653;28;1485;-71
2022/05/28 10:48:15;;;;;;;;;;;;;;;;;;5057869;28;1470;-69
2022/05/28 10:50:44;;;;;;;;;;;;;;;;;;5064656;28;1518;-69
2022/05/28 10:53:14;;;;;;;;;;;;;;;;;;5066464;28;1154;-69
2022/05/28 10:55:43;;;;;;;;;;;;;;;;;;5066837;28;1250;-69
2022/05/28 10:58:13;;;;;;;;;;;;;;;;;;5068251;28;1903;-70
2022/05/28 11:00:42;;;;;;;;;;;;;;;;;;5065993;28;1498;-70
2022/05/28 11:03:22;;;;;;;;;;;;;;;;;;5070384;28;1430;-70
2022/05/28 11:06:13;;;;;;;;;;;;;;;;;;5068262;28;1454;-69
2022/05/28 11:08:41;;;;;;;;;;;;;;;;;;5051587;28;1363;-67
2022/05/28 11:11:09;;;;;;;;;;;;;;;;;;5068518;28;1419;-69
2022/05/28 11:13:50;;;;;;;;;;;;;;;;;;5070918;28;1388;-70
2022/05/28 11:16:20;;;;;;;;;;;;;;;;;;5064518;28;2008;-68
2022/05/28 11:19:07;;;;;;;;;;;;;;;;;;5070932;28;1969;-67
2022/05/28 11:21:41;;;;;;;;;;;;;;;;;;5058595;28;1522;-71
2022/05/28 11:24:10;;;;;;;;;;;;;;;;;;5068247;28;1414;-69
2022/05/28 11:26:37;;;;;;;;;;;;;;;;;;5070855;28;1517;-69
2022/05/28 11:29:11;;;;;;;;;;;;;;;;;;5065531;28;1416;-69
2022/05/28 11:31:41;;;;;;;;;;;;;;;;;;5072655;28;1475;-70
2022/05/28 11:34:12;;;;;;;;;;;;;;;;;;5073291;28;1443;-70
2022/05/28 11:36:40;;;;;;;;;;;;;;;;;;5074285;28;1408;-71
2022/05/28 11:39:07;;;;;;;;;;;;;;;;;;5073977;28;1922;-69
2022/05/28 11:41:34;;;;;;;;;;;;;;;;;;5055116;28;1317;-70
2022/05/28 11:44:02;;;;;;;;;;;;;;;;;;5070977;28;1451;-70
2022/05/28 11:46:30;;;;;;;;;;;;;;;;;;5062700;28;1202;-69
2022/05/28 11:51:44;;;;;;;;;;;;;;;;;;5072813;28;1337;-70
2022/05/28 11:54:11;;;;;;;;;;;;;;;;;;5072455;28;1409;-70
2022/05/28 11:56:37;;;;;;;;;;;;;;;;;;5071281;28;1332;-68
2022/05/28 11:59:04;;;;;;;;;;;;;;;;;;5072706;28;1926;-69
2022/05/28 12:01:31;;;;;;;;;;;;;;;;;;5071588;28;1483;-69
2022/05/28 12:03:58;;;;;;;;;;;;;;;;;;5072723;28;1122;-70
2022/05/28 12:06:28;;;;;;;;;;;;;;;;;;5072565;28;1082;-69
2022/05/28 12:09:01;;;;;;;;;;;;;;;;;;5072525;28;1090;-69
2022/05/28 12:11:33;;;;;;;;;;;;;;;;;;5068375;28;1502;-69
2022/05/28 12:14:00;;;;;;;;;;;;;;;;;;5072570;28;1256;-69
2022/05/28 12:16:28;;;;;;;;;;;;;;;;;;5071461;28;1408;-70
2022/05/28 12:18:55;;;;;;;;;;;;;;;;;;5068638;28;1930;-71
2022/05/28 12:21:25;;;;;;;;;;;;;;;;;;5071295;28;1392;-70
2022/05/28 12:23:51;;;;;;;;;;;;;;;;;;5072248;28;1216;-71
2022/05/28 12:26:46;;;;;;;;;;;;;;;;;;5072074;28;1055;-70
2022/05/28 12:29:21;;;;;;;;;;;;;;;;;;5072512;28;977;-71
2022/05/28 12:31:48;;;;;;;;;;;;;;;;;;5071249;28;1458;-70
2022/05/28 12:34:19;;;;;;;;;;;;;;;;;;5063505;28;1336;-70
2022/05/28 12:36:46;;;;;;;;;;;;;;;;;;5071987;28;1534;-71
2022/05/28 12:39:23;;;;;;;;;;;;;;;;;;5071967;28;1973;-71
2022/05/28 12:41:55;;;;;;;;;;;;;;;;;;5072137;28;1404;-71
2022/05/28 12:44:21;;;;;;;;;;;;;;;;;;5070518;28;2162;-70
2022/05/28 12:46:49;;;;;;;;;;;;;;;;;;5071132;28;1173;-71
2022/05/28 12:49:24;;;;;;;;;;;;;;;;;;5071033;28;1412;-71
2022/05/28 12:51:53;;;;;;;;;;;;;;;;;;5070668;28;1355;-68
2022/05/28 12:54:23;;;;;;;;;;;;;;;;;;5071108;28;1338;-70
2022/05/28 12:56:49;;;;;;;;;;;;;;;;;;5071200;28;1111;-70
2022/05/28 12:59:29;;;;;;;;;;;;;;;;;;5071562;28;1914;-71
2022/05/28 13:01:56;;;;;;;;;;;;;;;;;;5070490;28;1509;-70
2022/05/28 13:04:22;;;;;;;;;;;;;;;;;;5070885;28;1376;-70
2022/05/28 13:06:49;;;;;;;;;;;;;;;;;;5071591;28;1161;-71
2022/05/28 13:09:16;;;;;;;;;;;;;;;;;;5071604;28;1067;-71
2022/05/28 13:11:43;;;;;;;;;;;;;;;;;;5071585;28;1399;-71
2022/05/28 13:14:19;;;;;;;;;;;;;;;;;;5068559;28;1416;-70
2022/05/28 13:17:12;;;;;;;;;;;;;;;;;;5061740;28;1138;-70
2022/05/28 13:19:48;;;;;;;;;;;;;;;;;;5027012;28;1979;-71
2022/05/28 13:22:17;;;;;;;;;;;;;;;;;;5051076;28;1059;-71
2022/05/28 13:24:59;;;;;;;;;;;;;;;;;;5066739;28;1404;-70
2022/05/28 13:27:31;;;;;;;;;;;;;;;;;;5064502;28;1173;-70
2022/05/28 13:30:06;;;;;;;;;;;;;;;;;;5063381;28;1533;-71
2022/05/28 13:32:32;;;;;;;;;;;;;;;;;;5069370;28;1752;-70
2022/05/28 13:35:01;;;;;;;;;;;;;;;;;;5070778;28;1347;-70
2022/05/28 13:37:28;;;;;;;;;;;;;;;;;;5070672;28;1439;-72
2022/05/28 13:39:56;;;;;;;;;;;;;;;;;;5069581;28;1973;-70
2022/05/28 13:42:22;;;;;;;;;;;;;;;;;;5060814;28;1138;-69
2022/05/28 13:44:48;;;;;;;;;;;;;;;;;;5068809;28;1493;-70
2022/05/28 13:47:15;;;;;;;;;;;;;;;;;;5069896;28;1169;-69
2022/05/28 13:49:41;;;;;;;;;;;;;;;;;;5070534;28;1255;-70
2022/05/28 13:52:11;;;;;;;;;;;;;;;;;;5070327;28;1307;-70
2022/05/28 13:54:38;;;;;;;;;;;;;;;;;;5070976;28;1103;-69
2022/05/28 13:57:05;;;;;;;;;;;;;;;;;;5070348;28;1119;-69
2022/05/28 13:59:33;;;;;;;;;;;;;;;;;;5069153;28;1914;-70
2022/05/28 14:01:59;;;;;;;;;;;;;;;;;;5070254;28;1348;-70
2022/05/28 14:04:29;;;;;;;;;;;;;;;;;;5069192;28;1249;-70
2022/05/28 14:06:56;;;;;;;;;;;;;;;;;;5069967;28;1233;-69
2022/05/28 14:09:29;;;;;;;;;;;;;;;;;;5067201;28;1507;-68
2022/05/28 14:11:55;;;;;;;;;;;;;;;;;;5069197;28;1396;-69
2022/05/28 14:14:22;;;;;;;;;;;;;;;;;;5068202;28;1397;-69
2022/05/28 14:16:49;;;;;;;;;;;;;;;;;;5065694;28;1421;-68
2022/05/28 14:19:17;;;;;;;;;;;;;;;;;;5066269;28;1918;-68
2022/05/28 14:21:48;;;;;;;;;;;;;;;;;;5069007;28;1644;-69
2022/05/28 14:24:15;;;;;;;;;;;;;;;;;;5088805;28;1138;-70
2022/05/28 14:26:43;;;;;;;;;;;;;;;;;;5075004;28;1225;-69
2022/05/28 14:29:09;;;;;;;;;;;;;;;;;;5070132;28;1135;-67
2022/05/28 14:31:37;;;;;;;;;;;;;;;;;;5070120;28;1320;-69
2022/05/28 14:34:03;;;;;;;;;;;;;;;;;;5070538;28;1123;-70
2022/05/28 14:36:32;;;;;;;;;;;;;;;;;;5073946;28;882;-70
2022/05/28 14:39:11;;;;;;;;;;;;;;;;;;5072698;28;1320;-67
2022/05/28 14:41:42;;;;;;;;;;;;;;;;;;5053893;28;1984;-70
2022/05/28 14:44:10;;;;;;;;;;;;;;;;;;5054106;28;668;-70
2022/05/28 14:46:39;;;;;;;;;;;;;;;;;;5052196;28;1773;-70
2022/05/28 14:49:05;;;;;;;;;;;;;;;;;;5054014;28;950;-69
2022/05/28 14:51:34;;;;;;;;;;;;;;;;;;5055408;28;1430;-69
2022/05/28 14:54:00;;;;;;;;;;;;;;;;;;5037853;28;1286;-70
2022/05/28 14:56:35;;;;;;;;;;;;;;;;;;5036346;28;1309;-69
2022/05/28 14:59:02;;;;;;;;;;;;;;;;;;5053624;28;772;-70
2022/05/28 15:01:30;;;;;;;;;;;;;;;;;;5053273;28;1913;-69
2022/05/28 15:03:57;;;;;;;;;;;;;;;;;;5053372;28;1032;-69
2022/05/28 15:06:24;;;;;;;;;;;;;;;;;;5052326;28;1269;-70
2022/05/28 15:08:51;;;;;;;;;;;;;;;;;;5053782;28;976;-68
2022/05/28 15:11:22;;;;;;;;;;;;;;;;;;5068562;28;1584;-69
2022/05/28 15:13:49;;;;;;;;;;;;;;;;;;5072094;28;1760;-70
2022/05/28 15:16:15;;;;;;;;;;;;;;;;;;5065615;28;1458;-68
2022/05/28 15:18:42;;;;;;;;;;;;;;;;;;5065580;28;1330;-69
2022/05/28 15:21:08;;;;;;;;;;;;;;;;;;5070541;28;1930;-69
2022/05/28 15:23:35;;;;;;;;;;;;;;;;;;5071320;28;989;-68
2022/05/28 15:26:03;;;;;;;;;;;;;;;;;;5071216;28;1083;-70
2022/05/28 15:28:29;;;;;;;;;;;;;;;;;;5070967;28;1063;-71
2022/05/28 15:30:55;;;;;;;;;;;;;;;;;;5069782;28;1486;-70
2022/05/28 15:33:22;;;;;;;;;;;;;;;;;;5070823;28;1201;-71
2022/05/28 15:38:33;;;;;;;;;;;;;;;;;;5070720;28;1149;-70
2022/05/28 15:41:00;;;;;;;;;;;;;;;;;;5070778;28;1914;-70
2022/05/28 15:43:27;;;;;;;;;;;;;;;;;;5071008;28;767;-69
2022/05/28 15:45:53;;;;;;;;;;;;;;;;;;5068661;28;1392;-70
2022/05/28 15:48:19;;;;;;;;;;;;;;;;;;5070405;28;1102;-70
2022/05/28 15:50:46;;;;;;;;;;;;;;;;;;5070471;28;1470;-71
2022/05/28 15:53:13;;;;;;;;;;;;;;;;;;5070514;28;1361;-70
2022/05/28 15:55:40;;;;;;;;;;;;;;;;;;5070757;28;1106;-71
2022/05/28 15:58:07;;;;;;;;;;;;;;;;;;5070512;28;1123;-71
2022/05/28 16:00:34;;;;;;;;;;;;;;;;;;5070635;28;1971;-70
2022/05/28 16:03:01;;;;;;;;;;;;;;;;;;5070841;28;1302;-70
2022/05/28 16:05:27;;;;;;;;;;;;;;;;;;5069558;28;1459;-70
2022/05/28 16:07:59;;;;;;;;;;;;;;;;;;5070081;28;1170;-70
2022/05/28 16:10:29;;;;;;;;;;;;;;;;;;5070529;28;1353;-70
2022/05/28 16:12:55;;;;;;;;;;;;;;;;;;5068183;28;791;-68
2022/05/28 16:15:21;;;;;;;;;;;;;;;;;;5070471;28;1056;-69
2022/05/28 16:17:49;;;;;;;;;;;;;;;;;;5070046;28;1126;-68
2022/05/28 16:20:15;;;;;;;;;;;;;;;;;;5070234;28;1906;-68
2022/05/28 16:22:42;;;;;;;;;;;;;;;;;;5068963;28;1651;-69
2022/05/28 16:25:09;;;;;;;;;;;;;;;;;;5069871;28;1221;-70
2022/05/28 16:27:37;;;;;;;;;;;;;;;;;;5066365;28;1535;-69
2022/05/28 16:30:05;;;;;;;;;;;;;;;;;;5069329;28;1403;-69
2022/05/28 16:32:31;;;;;;;;;;;;;;;;;;5070539;28;928;-70
2022/05/28 16:34:57;;;;;;;;;;;;;;;;;;5069197;28;1444;-69
2022/05/28 16:37:24;;;;;;;;;;;;;;;;;;5069889;28;1201;-69
2022/05/28 16:39:50;;;;;;;;;;;;;;;;;;5070120;28;1395;-67
2022/05/28 16:42:16;;;;;;;;;;;;;;;;;;5068547;28;1914;-69
2022/05/28 16:44:44;;;;;;;;;;;;;;;;;;5069447;28;1185;-68
2022/05/28 16:47:10;;;;;;;;;;;;;;;;;;5066419;28;1401;-69
2022/05/28 16:49:36;;;;;;;;;;;;;;;;;;5069472;28;1403;-69
2022/05/28 16:52:02;;;;;;;;;;;;;;;;;;5069465;28;1390;-70
2022/05/28 16:54:29;;;;;;;;;;;;;;;;;;5051096;28;839;-70
2022/05/28 16:56:55;;;;;;;;;;;;;;;;;;5069047;28;847;-70
2022/05/28 16:59:21;;;;;;;;;;;;;;;;;;5067281;28;1594;-69
2022/05/28 17:01:49;;;;;;;;;;;;;;;;;;5067895;28;1922;-69
2022/05/28 17:04:15;;;;;;;;;;;;;;;;;;5068094;28;1677;-69
2022/05/28 17:06:41;;;;;;;;;;;;;;;;;;5068785;28;1122;-70
2022/05/28 17:09:08;;;;;;;;;;;;;;;;;;5065550;28;1338;-72
2022/05/28 17:11:34;;;;;;;;;;;;;;;;;;5067327;28;1511;-70
2022/05/28 17:14:00;;;;;;;;;;;;;;;;;;5062630;28;1381;-70
2022/05/28 17:16:26;;;;;;;;;;;;;;;;;;5068272;28;1454;-69
2022/05/28 17:18:54;;;;;;;;;;;;;;;;;;5068216;28;1463;-69
2022/05/28 17:21:21;;;;;;;;;;;;;;;;;;5058676;28;1950;-70
2022/05/28 17:23:47;;;;;;;;;;;;;;;;;;5068502;28;1118;-68